sensor_id;sensor_type;location;lat;lon;timestamp;P1;durP1;ratioP1;P2;durP2;ratioP2
22963;SDS011;11648;49.306;6.934;2022-12-10T00:00:45;22.23;;;14.57;;
22963;SDS011;11648;49.306;6.934;2022-12-10T00:03:12;22.43;;;14.83;;
22963;SDS011;11648;49.306;6.934;2022-12-10T00:05:38;22.10;;;14.30;;
22963;SDS011;11648;49.306;6.934;2022-12-10T00:08:05;22.90;;;14.67;;
22963;SDS011;11648;49.306;6.934;2022-12-10T00:10:32;25.83;;;15.70;;
22963;SDS011;11648;49.306;6.934;2022-12-10T00:12:58;23.57;;;14.33;;
22963;SDS011;11648;49.306;6.934;2022-12-10T00:15:25;22.77;;;14.60;;
22963;SDS011;11648;49.306;6.934;2022-12-10T00:17:52;23.03;;;14.83;;
22963;SDS011;11648;49.306;6.934;2022-12-10T00:20:18;22.33;;;14.50;;
22963;SDS011;11648;49.306;6.934;2022-12-10T00:22:45;23.17;;;14.47;;
22963;SDS011;11648;49.306;6.934;2022-12-10T00:25:12;23.90;;;15.20;;
22963;SDS011;11648;49.306;6.934;2022-12-10T00:27:38;25.67;;;15.60;;
22963;SDS011;11648;49.306;6.934;2022-12-10T00:30:05;23.13;;;14.93;;
22963;SDS011;11648;49.306;6.934;2022-12-10T00:32:33;25.43;;;15.00;;
22963;SDS011;11648;49.306;6.934;2022-12-10T00:34:59;25.13;;;15.47;;
22963;SDS011;11648;49.306;6.934;2022-12-10T00:37:26;23.33;;;14.80;;
22963;SDS011;11648;49.306;6.934;2022-12-10T00:39:53;25.83;;;15.53;;
22963;SDS011;11648;49.306;6.934;2022-12-10T00:42:20;24.77;;;16.07;;
22963;SDS011;11648;49.306;6.934;2022-12-10T00:44:46;26.63;;;16.07;;
22963;SDS011;11648;49.306;6.934;2022-12-10T00:47:13;29.37;;;17.13;;
22963;SDS011;11648;49.306;6.934;2022-12-10T00:49:40;29.63;;;17.70;;
22963;SDS011;11648;49.306;6.934;2022-12-10T00:52:07;27.17;;;16.27;;
22963;SDS011;11648;49.306;6.934;2022-12-10T00:54:33;29.70;;;16.73;;
22963;SDS011;11648;49.306;6.934;2022-12-10T00:57:00;26.67;;;15.60;;
22963;SDS011;11648;49.306;6.934;2022-12-10T00:59:27;26.07;;;16.17;;
22963;SDS011;11648;49.306;6.934;2022-12-10T01:01:54;24.33;;;15.27;;
22963;SDS011;11648;49.306;6.934;2022-12-10T01:04:20;26.40;;;15.93;;
22963;SDS011;11648;49.306;6.934;2022-12-10T01:06:48;26.57;;;16.10;;
22963;SDS011;11648;49.306;6.934;2022-12-10T01:09:17;27.63;;;15.20;;
22963;SDS011;11648;49.306;6.934;2022-12-10T01:11:52;26.83;;;15.13;;
22963;SDS011;11648;49.306;6.934;2022-12-10T01:14:21;22.23;;;14.17;;
22963;SDS011;11648;49.306;6.934;2022-12-10T01:16:52;22.13;;;14.20;;
22963;SDS011;11648;49.306;6.934;2022-12-10T01:19:20;24.37;;;14.90;;
22963;SDS011;11648;49.306;6.934;2022-12-10T01:21:50;20.83;;;13.73;;
22963;SDS011;11648;49.306;6.934;2022-12-10T01:24:17;23.80;;;13.80;;
22963;SDS011;11648;49.306;6.934;2022-12-10T01:26:44;22.37;;;13.90;;
22963;SDS011;11648;49.306;6.934;2022-12-10T01:29:11;24.43;;;13.87;;
22963;SDS011;11648;49.306;6.934;2022-12-10T01:31:39;23.33;;;13.80;;
22963;SDS011;11648;49.306;6.934;2022-12-10T01:34:07;20.30;;;12.87;;
22963;SDS011;11648;49.306;6.934;2022-12-10T01:36:42;23.03;;;14.17;;
22963;SDS011;11648;49.306;6.934;2022-12-10T01:39:12;25.03;;;15.10;;
22963;SDS011;11648;49.306;6.934;2022-12-10T01:41:42;25.20;;;15.43;;
22963;SDS011;11648;49.306;6.934;2022-12-10T01:46:38;23.00;;;14.80;;
22963;SDS011;11648;49.306;6.934;2022-12-10T01:49:12;23.57;;;14.93;;
22963;SDS011;11648;49.306;6.934;2022-12-10T01:51:44;24.77;;;15.70;;
22963;SDS011;11648;49.306;6.934;2022-12-10T01:54:20;26.43;;;15.27;;
22963;SDS011;11648;49.306;6.934;2022-12-10T01:56:50;25.67;;;15.37;;
22963;SDS011;11648;49.306;6.934;2022-12-10T01:59:24;23.50;;;14.57;;
22963;SDS011;11648;49.306;6.934;2022-12-10T02:15:59;25.13;;;15.30;;
22963;SDS011;11648;49.306;6.934;2022-12-10T02:18:50;22.07;;;14.63;;
22963;SDS011;11648;49.306;6.934;2022-12-10T02:21:34;22.67;;;14.63;;
22963;SDS011;11648;49.306;6.934;2022-12-10T02:24:08;24.90;;;14.90;;
22963;SDS011;11648;49.306;6.934;2022-12-10T02:26:44;23.17;;;14.37;;
22963;SDS011;11648;49.306;6.934;2022-12-10T02:29:19;25.67;;;15.90;;
22963;SDS011;11648;49.306;6.934;2022-12-10T02:31:56;26.10;;;15.47;;
22963;SDS011;11648;49.306;6.934;2022-12-10T02:34:35;24.40;;;14.90;;
22963;SDS011;11648;49.306;6.934;2022-12-10T02:37:12;24.03;;;14.67;;
22963;SDS011;11648;49.306;6.934;2022-12-10T02:39:49;20.77;;;13.00;;
22963;SDS011;11648;49.306;6.934;2022-12-10T02:42:20;20.77;;;13.10;;
22963;SDS011;11648;49.306;6.934;2022-12-10T02:44:50;21.60;;;13.67;;
22963;SDS011;11648;49.306;6.934;2022-12-10T02:47:21;22.53;;;13.50;;
22963;SDS011;11648;49.306;6.934;2022-12-10T02:49:49;21.20;;;13.23;;
22963;SDS011;11648;49.306;6.934;2022-12-10T02:52:20;21.33;;;13.23;;
22963;SDS011;11648;49.306;6.934;2022-12-10T02:54:51;19.67;;;12.90;;
22963;SDS011;11648;49.306;6.934;2022-12-10T03:02:53;21.00;;;12.43;;
22963;SDS011;11648;49.306;6.934;2022-12-10T03:08:05;20.43;;;13.27;;
22963;SDS011;11648;49.306;6.934;2022-12-10T03:10:58;22.23;;;13.23;;
22963;SDS011;11648;49.306;6.934;2022-12-10T03:13:36;20.07;;;12.57;;
22963;SDS011;11648;49.306;6.934;2022-12-10T03:16:13;23.17;;;13.37;;
22963;SDS011;11648;49.306;6.934;2022-12-10T03:18:41;20.20;;;12.80;;
22963;SDS011;11648;49.306;6.934;2022-12-10T03:21:12;23.23;;;13.33;;
22963;SDS011;11648;49.306;6.934;2022-12-10T03:23:43;22.73;;;14.20;;
22963;SDS011;11648;49.306;6.934;2022-12-10T03:26:12;22.00;;;13.83;;
22963;SDS011;11648;49.306;6.934;2022-12-10T03:28:41;18.90;;;12.37;;
22963;SDS011;11648;49.306;6.934;2022-12-10T03:31:16;20.43;;;12.03;;
22963;SDS011;11648;49.306;6.934;2022-12-10T03:33:45;20.60;;;12.80;;
22963;SDS011;11648;49.306;6.934;2022-12-10T03:36:13;19.47;;;12.13;;
22963;SDS011;11648;49.306;6.934;2022-12-10T03:38:42;18.87;;;11.93;;
22963;SDS011;11648;49.306;6.934;2022-12-10T03:41:09;19.63;;;12.57;;
22963;SDS011;11648;49.306;6.934;2022-12-10T03:43:48;20.73;;;12.33;;
22963;SDS011;11648;49.306;6.934;2022-12-10T03:46:23;19.33;;;12.00;;
22963;SDS011;11648;49.306;6.934;2022-12-10T03:48:52;17.40;;;11.30;;
22963;SDS011;11648;49.306;6.934;2022-12-10T03:51:19;18.67;;;11.80;;
22963;SDS011;11648;49.306;6.934;2022-12-10T03:53:47;20.20;;;12.37;;
22963;SDS011;11648;49.306;6.934;2022-12-10T03:56:16;19.67;;;12.03;;
22963;SDS011;11648;49.306;6.934;2022-12-10T03:58:44;18.67;;;12.27;;
22963;SDS011;11648;49.306;6.934;2022-12-10T04:01:12;18.27;;;11.77;;
22963;SDS011;11648;49.306;6.934;2022-12-10T04:03:40;18.97;;;11.73;;
22963;SDS011;11648;49.306;6.934;2022-12-10T04:06:10;21.67;;;11.53;;
22963;SDS011;11648;49.306;6.934;2022-12-10T04:08:39;17.67;;;11.43;;
22963;SDS011;11648;49.306;6.934;2022-12-10T04:11:07;20.87;;;12.73;;
22963;SDS011;11648;49.306;6.934;2022-12-10T04:13:38;18.93;;;12.00;;
22963;SDS011;11648;49.306;6.934;2022-12-10T04:16:24;17.50;;;11.23;;
22963;SDS011;11648;49.306;6.934;2022-12-10T04:18:59;16.47;;;10.43;;
22963;SDS011;11648;49.306;6.934;2022-12-10T04:21:31;16.80;;;10.57;;
22963;SDS011;11648;49.306;6.934;2022-12-10T04:24:20;18.43;;;11.10;;
22963;SDS011;11648;49.306;6.934;2022-12-10T04:27:11;17.67;;;10.80;;
22963;SDS011;11648;49.306;6.934;2022-12-10T04:29:53;18.90;;;10.30;;
22963;SDS011;11648;49.306;6.934;2022-12-10T04:32:21;17.53;;;10.90;;
22963;SDS011;11648;49.306;6.934;2022-12-10T04:34:49;16.83;;;9.97;;
22963;SDS011;11648;49.306;6.934;2022-12-10T04:37:16;16.90;;;10.77;;
22963;SDS011;11648;49.306;6.934;2022-12-10T04:39:44;13.60;;;9.33;;
22963;SDS011;11648;49.306;6.934;2022-12-10T04:42:11;14.93;;;10.13;;
22963;SDS011;11648;49.306;6.934;2022-12-10T04:44:38;18.93;;;10.87;;
22963;SDS011;11648;49.306;6.934;2022-12-10T04:47:06;17.47;;;10.27;;
22963;SDS011;11648;49.306;6.934;2022-12-10T04:49:34;15.23;;;10.03;;
22963;SDS011;11648;49.306;6.934;2022-12-10T04:52:01;14.93;;;9.93;;
22963;SDS011;11648;49.306;6.934;2022-12-10T04:54:28;20.77;;;10.80;;
22963;SDS011;11648;49.306;6.934;2022-12-10T04:57:02;16.73;;;10.60;;
22963;SDS011;11648;49.306;6.934;2022-12-10T04:59:29;16.53;;;9.97;;
22963;SDS011;11648;49.306;6.934;2022-12-10T05:01:56;16.63;;;10.50;;
22963;SDS011;11648;49.306;6.934;2022-12-10T05:04:23;18.30;;;10.77;;
22963;SDS011;11648;49.306;6.934;2022-12-10T05:06:49;17.77;;;11.00;;
22963;SDS011;11648;49.306;6.934;2022-12-10T05:09:17;17.10;;;10.73;;
22963;SDS011;11648;49.306;6.934;2022-12-10T05:11:44;15.40;;;9.97;;
22963;SDS011;11648;49.306;6.934;2022-12-10T05:14:12;16.50;;;10.40;;
22963;SDS011;11648;49.306;6.934;2022-12-10T05:16:39;14.37;;;9.83;;
22963;SDS011;11648;49.306;6.934;2022-12-10T05:19:07;15.33;;;10.07;;
22963;SDS011;11648;49.306;6.934;2022-12-10T05:21:35;17.37;;;10.13;;
22963;SDS011;11648;49.306;6.934;2022-12-10T05:24:21;21.43;;;12.67;;
22963;SDS011;11648;49.306;6.934;2022-12-10T05:26:48;29.80;;;19.10;;
22963;SDS011;11648;49.306;6.934;2022-12-10T05:29:17;41.10;;;26.10;;
22963;SDS011;11648;49.306;6.934;2022-12-10T05:31:45;24.70;;;16.33;;
22963;SDS011;11648;49.306;6.934;2022-12-10T05:34:11;17.67;;;11.40;;
22963;SDS011;11648;49.306;6.934;2022-12-10T05:36:38;15.23;;;10.43;;
22963;SDS011;11648;49.306;6.934;2022-12-10T05:39:06;16.03;;;11.03;;
22963;SDS011;11648;49.306;6.934;2022-12-10T05:41:34;15.67;;;11.30;;
22963;SDS011;11648;49.306;6.934;2022-12-10T05:44:03;16.03;;;10.83;;
22963;SDS011;11648;49.306;6.934;2022-12-10T05:46:33;17.60;;;11.97;;
22963;SDS011;11648;49.306;6.934;2022-12-10T05:49:01;15.27;;;10.40;;
22963;SDS011;11648;49.306;6.934;2022-12-10T05:51:30;16.70;;;9.60;;
22963;SDS011;11648;49.306;6.934;2022-12-10T05:54:00;14.00;;;9.00;;
22963;SDS011;11648;49.306;6.934;2022-12-10T05:56:28;12.17;;;8.17;;
22963;SDS011;11648;49.306;6.934;2022-12-10T05:58:57;14.47;;;9.03;;
22963;SDS011;11648;49.306;6.934;2022-12-10T06:01:26;13.20;;;8.60;;
22963;SDS011;11648;49.306;6.934;2022-12-10T06:03:56;15.60;;;8.83;;
22963;SDS011;11648;49.306;6.934;2022-12-10T06:06:25;12.97;;;7.90;;
22963;SDS011;11648;49.306;6.934;2022-12-10T06:09:01;12.43;;;8.70;;
22963;SDS011;11648;49.306;6.934;2022-12-10T06:11:28;13.30;;;8.37;;
22963;SDS011;11648;49.306;6.934;2022-12-10T06:13:58;13.77;;;8.23;;
22963;SDS011;11648;49.306;6.934;2022-12-10T06:16:26;11.93;;;7.90;;
22963;SDS011;11648;49.306;6.934;2022-12-10T06:18:53;12.60;;;7.90;;
22963;SDS011;11648;49.306;6.934;2022-12-10T06:21:21;10.30;;;7.43;;
22963;SDS011;11648;49.306;6.934;2022-12-10T06:23:49;10.90;;;7.23;;
22963;SDS011;11648;49.306;6.934;2022-12-10T06:26:23;11.13;;;7.00;;
22963;SDS011;11648;49.306;6.934;2022-12-10T06:28:51;11.43;;;7.53;;
22963;SDS011;11648;49.306;6.934;2022-12-10T06:31:19;10.60;;;7.20;;
22963;SDS011;11648;49.306;6.934;2022-12-10T06:33:47;12.30;;;7.23;;
22963;SDS011;11648;49.306;6.934;2022-12-10T06:36:15;9.73;;;6.77;;
22963;SDS011;11648;49.306;6.934;2022-12-10T06:38:42;9.00;;;6.60;;
22963;SDS011;11648;49.306;6.934;2022-12-10T06:41:11;11.10;;;7.30;;
22963;SDS011;11648;49.306;6.934;2022-12-10T06:43:39;10.57;;;6.60;;
22963;SDS011;11648;49.306;6.934;2022-12-10T06:46:07;10.67;;;6.73;;
22963;SDS011;11648;49.306;6.934;2022-12-10T06:48:36;11.50;;;6.93;;
22963;SDS011;11648;49.306;6.934;2022-12-10T06:51:03;11.83;;;6.93;;
22963;SDS011;11648;49.306;6.934;2022-12-10T06:53:31;9.73;;;6.57;;
22963;SDS011;11648;49.306;6.934;2022-12-10T06:56:01;9.47;;;6.87;;
22963;SDS011;11648;49.306;6.934;2022-12-10T06:58:30;9.93;;;6.93;;
22963;SDS011;11648;49.306;6.934;2022-12-10T07:01:07;10.73;;;7.40;;
22963;SDS011;11648;49.306;6.934;2022-12-10T07:03:36;10.07;;;6.60;;
22963;SDS011;11648;49.306;6.934;2022-12-10T07:06:04;11.40;;;6.93;;
22963;SDS011;11648;49.306;6.934;2022-12-10T07:08:33;10.13;;;6.70;;
22963;SDS011;11648;49.306;6.934;2022-12-10T07:11:04;10.30;;;7.00;;
22963;SDS011;11648;49.306;6.934;2022-12-10T07:13:33;10.47;;;7.00;;
22963;SDS011;11648;49.306;6.934;2022-12-10T07:16:00;12.77;;;7.77;;
22963;SDS011;11648;49.306;6.934;2022-12-10T07:18:26;11.20;;;7.10;;
22963;SDS011;11648;49.306;6.934;2022-12-10T07:20:53;9.63;;;5.93;;
22963;SDS011;11648;49.306;6.934;2022-12-10T07:23:21;9.87;;;6.67;;
22963;SDS011;11648;49.306;6.934;2022-12-10T07:25:48;10.90;;;6.67;;
22963;SDS011;11648;49.306;6.934;2022-12-10T07:28:14;10.83;;;6.97;;
22963;SDS011;11648;49.306;6.934;2022-12-10T07:30:41;10.73;;;6.73;;
22963;SDS011;11648;49.306;6.934;2022-12-10T07:33:08;10.07;;;6.90;;
22963;SDS011;11648;49.306;6.934;2022-12-10T07:35:37;11.57;;;6.83;;
22963;SDS011;11648;49.306;6.934;2022-12-10T07:38:12;11.60;;;7.63;;
22963;SDS011;11648;49.306;6.934;2022-12-10T07:40:39;11.23;;;7.03;;
22963;SDS011;11648;49.306;6.934;2022-12-10T07:43:06;10.30;;;7.17;;
22963;SDS011;11648;49.306;6.934;2022-12-10T07:45:32;12.33;;;7.67;;
22963;SDS011;11648;49.306;6.934;2022-12-10T07:47:59;11.73;;;8.07;;
22963;SDS011;11648;49.306;6.934;2022-12-10T07:50:26;10.73;;;7.00;;
22963;SDS011;11648;49.306;6.934;2022-12-10T07:52:52;11.83;;;7.50;;
22963;SDS011;11648;49.306;6.934;2022-12-10T07:55:19;12.17;;;7.40;;
22963;SDS011;11648;49.306;6.934;2022-12-10T07:57:46;9.03;;;6.83;;
22963;SDS011;11648;49.306;6.934;2022-12-10T08:00:13;11.37;;;7.40;;
22963;SDS011;11648;49.306;6.934;2022-12-10T08:02:40;8.53;;;6.07;;
22963;SDS011;11648;49.306;6.934;2022-12-10T08:05:07;9.47;;;6.37;;
22963;SDS011;11648;49.306;6.934;2022-12-10T08:07:34;9.50;;;6.30;;
22963;SDS011;11648;49.306;6.934;2022-12-10T08:10:00;10.40;;;6.93;;
22963;SDS011;11648;49.306;6.934;2022-12-10T08:12:28;9.37;;;6.20;;
22963;SDS011;11648;49.306;6.934;2022-12-10T08:14:54;9.50;;;6.23;;
22963;SDS011;11648;49.306;6.934;2022-12-10T08:17:21;9.97;;;6.53;;
22963;SDS011;11648;49.306;6.934;2022-12-10T08:19:48;11.20;;;6.33;;
22963;SDS011;11648;49.306;6.934;2022-12-10T08:22:16;9.57;;;6.80;;
22963;SDS011;11648;49.306;6.934;2022-12-10T08:24:43;10.03;;;6.33;;
22963;SDS011;11648;49.306;6.934;2022-12-10T08:27:10;8.63;;;6.37;;
22963;SDS011;11648;49.306;6.934;2022-12-10T08:29:36;12.47;;;7.23;;
22963;SDS011;11648;49.306;6.934;2022-12-10T08:32:03;10.27;;;6.70;;
22963;SDS011;11648;49.306;6.934;2022-12-10T08:34:30;10.40;;;6.87;;
22963;SDS011;11648;49.306;6.934;2022-12-10T08:36:57;9.40;;;6.23;;
22963;SDS011;11648;49.306;6.934;2022-12-10T08:39:23;8.07;;;6.03;;
22963;SDS011;11648;49.306;6.934;2022-12-10T08:41:50;8.67;;;6.23;;
22963;SDS011;11648;49.306;6.934;2022-12-10T08:44:17;8.07;;;5.97;;
22963;SDS011;11648;49.306;6.934;2022-12-10T08:46:43;9.33;;;6.07;;
22963;SDS011;11648;49.306;6.934;2022-12-10T08:49:10;8.67;;;6.13;;
22963;SDS011;11648;49.306;6.934;2022-12-10T08:51:37;10.63;;;6.90;;
22963;SDS011;11648;49.306;6.934;2022-12-10T08:54:05;13.10;;;6.80;;
22963;SDS011;11648;49.306;6.934;2022-12-10T08:56:31;8.60;;;6.13;;
22963;SDS011;11648;49.306;6.934;2022-12-10T08:58:58;10.23;;;6.27;;
22963;SDS011;11648;49.306;6.934;2022-12-10T09:01:26;11.63;;;7.47;;
22963;SDS011;11648;49.306;6.934;2022-12-10T09:03:52;9.87;;;6.20;;
22963;SDS011;11648;49.306;6.934;2022-12-10T09:06:20;10.43;;;6.30;;
22963;SDS011;11648;49.306;6.934;2022-12-10T09:08:50;9.13;;;6.20;;
22963;SDS011;11648;49.306;6.934;2022-12-10T09:11:25;11.57;;;6.20;;
22963;SDS011;11648;49.306;6.934;2022-12-10T09:13:52;7.70;;;5.50;;
22963;SDS011;11648;49.306;6.934;2022-12-10T09:16:21;8.77;;;5.83;;
22963;SDS011;11648;49.306;6.934;2022-12-10T09:18:53;8.70;;;5.70;;
22963;SDS011;11648;49.306;6.934;2022-12-10T09:21:19;10.00;;;6.70;;
22963;SDS011;11648;49.306;6.934;2022-12-10T09:23:46;9.57;;;5.90;;
22963;SDS011;11648;49.306;6.934;2022-12-10T09:26:14;9.83;;;6.40;;
22963;SDS011;11648;49.306;6.934;2022-12-10T09:28:42;9.03;;;6.00;;
22963;SDS011;11648;49.306;6.934;2022-12-10T09:31:10;8.50;;;6.10;;
22963;SDS011;11648;49.306;6.934;2022-12-10T09:33:45;10.30;;;6.73;;
22963;SDS011;11648;49.306;6.934;2022-12-10T09:36:14;9.77;;;7.37;;
22963;SDS011;11648;49.306;6.934;2022-12-10T09:38:42;8.63;;;5.97;;
22963;SDS011;11648;49.306;6.934;2022-12-10T09:43:41;7.67;;;5.53;;
22963;SDS011;11648;49.306;6.934;2022-12-10T09:48:54;8.20;;;6.20;;
22963;SDS011;11648;49.306;6.934;2022-12-10T09:51:29;8.13;;;6.17;;
22963;SDS011;11648;49.306;6.934;2022-12-10T09:53:58;7.97;;;5.63;;
22963;SDS011;11648;49.306;6.934;2022-12-10T09:56:31;8.83;;;5.97;;
22963;SDS011;11648;49.306;6.934;2022-12-10T09:59:02;9.17;;;5.97;;
22963;SDS011;11648;49.306;6.934;2022-12-10T10:01:32;8.17;;;5.40;;
22963;SDS011;11648;49.306;6.934;2022-12-10T10:04:02;8.77;;;5.70;;
22963;SDS011;11648;49.306;6.934;2022-12-10T10:06:29;7.10;;;5.70;;
22963;SDS011;11648;49.306;6.934;2022-12-10T10:08:57;7.40;;;5.60;;
22963;SDS011;11648;49.306;6.934;2022-12-10T10:11:30;8.93;;;6.50;;
22963;SDS011;11648;49.306;6.934;2022-12-10T10:19:20;10.07;;;6.27;;
22963;SDS011;11648;49.306;6.934;2022-12-10T10:21:50;9.70;;;6.87;;
22963;SDS011;11648;49.306;6.934;2022-12-10T10:24:19;10.67;;;7.03;;
22963;SDS011;11648;49.306;6.934;2022-12-10T10:26:48;11.73;;;7.90;;
22963;SDS011;11648;49.306;6.934;2022-12-10T10:29:18;9.03;;;6.87;;
22963;SDS011;11648;49.306;6.934;2022-12-10T10:31:57;8.67;;;6.70;;
22963;SDS011;11648;49.306;6.934;2022-12-10T10:34:46;10.07;;;7.00;;
22963;SDS011;11648;49.306;6.934;2022-12-10T10:39:51;9.47;;;7.23;;
22963;SDS011;11648;49.306;6.934;2022-12-10T10:42:26;8.87;;;6.50;;
22963;SDS011;11648;49.306;6.934;2022-12-10T10:45:01;9.07;;;7.00;;
22963;SDS011;11648;49.306;6.934;2022-12-10T10:47:33;7.30;;;6.10;;
22963;SDS011;11648;49.306;6.934;2022-12-10T10:50:01;8.90;;;7.00;;
22963;SDS011;11648;49.306;6.934;2022-12-10T10:52:32;9.33;;;7.17;;
22963;SDS011;11648;49.306;6.934;2022-12-10T10:55:02;8.87;;;7.13;;
22963;SDS011;11648;49.306;6.934;2022-12-10T10:57:36;11.23;;;6.93;;
22963;SDS011;11648;49.306;6.934;2022-12-10T11:00:05;8.80;;;6.70;;
22963;SDS011;11648;49.306;6.934;2022-12-10T11:02:43;8.87;;;6.60;;
22963;SDS011;11648;49.306;6.934;2022-12-10T11:05:19;9.33;;;7.53;;
22963;SDS011;11648;49.306;6.934;2022-12-10T11:07:47;10.37;;;7.90;;
22963;SDS011;11648;49.306;6.934;2022-12-10T11:10:21;10.47;;;8.20;;
22963;SDS011;11648;49.306;6.934;2022-12-10T11:13:18;9.30;;;7.60;;
22963;SDS011;11648;49.306;6.934;2022-12-10T11:15:45;9.70;;;7.50;;
22963;SDS011;11648;49.306;6.934;2022-12-10T11:18:24;8.73;;;6.47;;
22963;SDS011;11648;49.306;6.934;2022-12-10T11:23:41;7.93;;;7.13;;
22963;SDS011;11648;49.306;6.934;2022-12-10T11:34:49;8.67;;;7.20;;
22963;SDS011;11648;49.306;6.934;2022-12-10T11:40:46;7.07;;;6.38;;
22963;SDS011;11648;49.306;6.934;2022-12-10T11:43:20;8.32;;;7.47;;
22963;SDS011;11648;49.306;6.934;2022-12-10T11:56:58;8.18;;;7.38;;
22963;SDS011;11648;49.306;6.934;2022-12-10T11:59:42;8.80;;;7.97;;
22963;SDS011;11648;49.306;6.934;2022-12-10T12:16:30;8.95;;;8.15;;
22963;SDS011;11648;49.306;6.934;2022-12-10T12:19:03;8.25;;;7.45;;
22963;SDS011;11648;49.306;6.934;2022-12-10T12:21:35;9.57;;;8.60;;
22963;SDS011;11648;49.306;6.934;2022-12-10T12:26:53;8.93;;;7.70;;
22963;SDS011;11648;49.306;6.934;2022-12-10T12:32:45;8.27;;;6.43;;
22963;SDS011;11648;49.306;6.934;2022-12-10T12:35:21;7.17;;;5.93;;
22963;SDS011;11648;49.306;6.934;2022-12-10T12:37:58;8.27;;;6.47;;
22963;SDS011;11648;49.306;6.934;2022-12-10T12:40:31;8.53;;;6.93;;
22963;SDS011;11648;49.306;6.934;2022-12-10T12:43:07;8.47;;;6.70;;
22963;SDS011;11648;49.306;6.934;2022-12-10T12:45:40;8.37;;;6.10;;
22963;SDS011;11648;49.306;6.934;2022-12-10T12:50:59;8.33;;;6.00;;
22963;SDS011;11648;49.306;6.934;2022-12-10T12:53:29;8.60;;;6.50;;
22963;SDS011;11648;49.306;6.934;2022-12-10T12:58:31;8.43;;;6.30;;
22963;SDS011;11648;49.306;6.934;2022-12-10T13:01:03;8.87;;;6.80;;
22963;SDS011;11648;49.306;6.934;2022-12-10T13:03:38;9.17;;;6.80;;
22963;SDS011;11648;49.306;6.934;2022-12-10T13:08:47;9.07;;;6.20;;
22963;SDS011;11648;49.306;6.934;2022-12-10T13:11:28;8.20;;;5.67;;
22963;SDS011;11648;49.306;6.934;2022-12-10T13:14:02;9.87;;;5.30;;
22963;SDS011;11648;49.306;6.934;2022-12-10T13:22:03;8.70;;;5.77;;
22963;SDS011;11648;49.306;6.934;2022-12-10T13:27:02;9.43;;;6.47;;
22963;SDS011;11648;49.306;6.934;2022-12-10T13:29:45;11.33;;;6.00;;
22963;SDS011;11648;49.306;6.934;2022-12-10T13:42:35;11.00;;;6.83;;
22963;SDS011;11648;49.306;6.934;2022-12-10T13:53:10;12.57;;;7.73;;
22963;SDS011;11648;49.306;6.934;2022-12-10T14:01:41;12.87;;;7.50;;
22963;SDS011;11648;49.306;6.934;2022-12-10T14:06:55;11.10;;;6.97;;
22963;SDS011;11648;49.306;6.934;2022-12-10T14:09:26;10.23;;;6.00;;
22963;SDS011;11648;49.306;6.934;2022-12-10T14:12:03;10.00;;;6.60;;
22963;SDS011;11648;49.306;6.934;2022-12-10T14:14:35;10.07;;;6.10;;
22963;SDS011;11648;49.306;6.934;2022-12-10T14:17:12;10.53;;;6.83;;
22963;SDS011;11648;49.306;6.934;2022-12-10T14:19:46;11.70;;;6.27;;
22963;SDS011;11648;49.306;6.934;2022-12-10T14:22:20;10.70;;;6.80;;
22963;SDS011;11648;49.306;6.934;2022-12-10T14:24:54;10.77;;;6.20;;
22963;SDS011;11648;49.306;6.934;2022-12-10T14:27:26;11.73;;;6.70;;
22963;SDS011;11648;49.306;6.934;2022-12-10T14:30:04;10.70;;;6.87;;
22963;SDS011;11648;49.306;6.934;2022-12-10T14:32:41;11.07;;;6.80;;
22963;SDS011;11648;49.306;6.934;2022-12-10T14:35:17;12.40;;;6.70;;
22963;SDS011;11648;49.306;6.934;2022-12-10T14:37:51;11.53;;;7.13;;
22963;SDS011;11648;49.306;6.934;2022-12-10T14:40:25;12.43;;;8.17;;
22963;SDS011;11648;49.306;6.934;2022-12-10T14:42:55;13.03;;;7.83;;
22963;SDS011;11648;49.306;6.934;2022-12-10T14:45:31;10.83;;;6.90;;
22963;SDS011;11648;49.306;6.934;2022-12-10T14:48:10;12.47;;;7.00;;
22963;SDS011;11648;49.306;6.934;2022-12-10T14:50:38;10.53;;;6.80;;
22963;SDS011;11648;49.306;6.934;2022-12-10T14:53:08;14.37;;;7.67;;
22963;SDS011;11648;49.306;6.934;2022-12-10T14:55:40;12.37;;;7.70;;
22963;SDS011;11648;49.306;6.934;2022-12-10T14:58:09;12.80;;;7.93;;
22963;SDS011;11648;49.306;6.934;2022-12-10T15:00:43;11.00;;;7.30;;
22963;SDS011;11648;49.306;6.934;2022-12-10T15:03:11;14.07;;;7.87;;
22963;SDS011;11648;49.306;6.934;2022-12-10T15:05:59;14.33;;;8.30;;
22963;SDS011;11648;49.306;6.934;2022-12-10T15:08:32;15.13;;;8.27;;
22963;SDS011;11648;49.306;6.934;2022-12-10T15:11:00;12.33;;;7.70;;
22963;SDS011;11648;49.306;6.934;2022-12-10T15:13:37;13.73;;;7.53;;
22963;SDS011;11648;49.306;6.934;2022-12-10T15:16:13;11.70;;;6.97;;
22963;SDS011;11648;49.306;6.934;2022-12-10T15:18:46;11.63;;;6.90;;
22963;SDS011;11648;49.306;6.934;2022-12-10T15:21:19;10.53;;;6.07;;
22963;SDS011;11648;49.306;6.934;2022-12-10T15:23:47;11.57;;;6.17;;
22963;SDS011;11648;49.306;6.934;2022-12-10T15:26:27;11.77;;;6.10;;
22963;SDS011;11648;49.306;6.934;2022-12-10T15:32:05;12.13;;;6.90;;
22963;SDS011;11648;49.306;6.934;2022-12-10T15:34:45;12.40;;;6.27;;
22963;SDS011;11648;49.306;6.934;2022-12-10T15:37:21;10.37;;;5.67;;
22963;SDS011;11648;49.306;6.934;2022-12-10T15:39:53;9.57;;;5.20;;
22963;SDS011;11648;49.306;6.934;2022-12-10T15:45:03;8.47;;;4.90;;
22963;SDS011;11648;49.306;6.934;2022-12-10T15:47:44;8.90;;;4.97;;
22963;SDS011;11648;49.306;6.934;2022-12-10T15:50:11;11.13;;;6.17;;
22963;SDS011;11648;49.306;6.934;2022-12-10T15:52:39;9.47;;;5.07;;
22963;SDS011;11648;49.306;6.934;2022-12-10T15:55:06;9.53;;;5.53;;
22963;SDS011;11648;49.306;6.934;2022-12-10T15:57:34;9.27;;;5.17;;
22963;SDS011;11648;49.306;6.934;2022-12-10T16:00:04;8.13;;;5.23;;
22963;SDS011;11648;49.306;6.934;2022-12-10T16:02:40;9.53;;;6.17;;
22963;SDS011;11648;49.306;6.934;2022-12-10T16:05:13;11.93;;;7.80;;
22963;SDS011;11648;49.306;6.934;2022-12-10T16:07:49;14.17;;;11.63;;
22963;SDS011;11648;49.306;6.934;2022-12-10T16:10:18;11.87;;;8.70;;
22963;SDS011;11648;49.306;6.934;2022-12-10T16:13:21;12.10;;;6.10;;
22963;SDS011;11648;49.306;6.934;2022-12-10T16:15:52;13.20;;;6.33;;
22963;SDS011;11648;49.306;6.934;2022-12-10T16:18:24;10.27;;;6.07;;
22963;SDS011;11648;49.306;6.934;2022-12-10T16:20:59;11.07;;;5.83;;
22963;SDS011;11648;49.306;6.934;2022-12-10T16:23:26;10.80;;;6.20;;
22963;SDS011;11648;49.306;6.934;2022-12-10T16:25:52;11.97;;;6.93;;
22963;SDS011;11648;49.306;6.934;2022-12-10T16:28:20;15.63;;;7.90;;
22963;SDS011;11648;49.306;6.934;2022-12-10T16:30:49;16.00;;;8.13;;
22963;SDS011;11648;49.306;6.934;2022-12-10T16:33:20;15.47;;;7.70;;
22963;SDS011;11648;49.306;6.934;2022-12-10T16:35:52;15.23;;;8.40;;
22963;SDS011;11648;49.306;6.934;2022-12-10T16:38:20;15.57;;;8.20;;
22963;SDS011;11648;49.306;6.934;2022-12-10T16:40:47;18.03;;;9.27;;
22963;SDS011;11648;49.306;6.934;2022-12-10T16:43:18;17.00;;;9.33;;
22963;SDS011;11648;49.306;6.934;2022-12-10T16:45:49;17.07;;;9.47;;
22963;SDS011;11648;49.306;6.934;2022-12-10T16:48:17;15.93;;;8.70;;
22963;SDS011;11648;49.306;6.934;2022-12-10T16:50:45;15.30;;;8.40;;
22963;SDS011;11648;49.306;6.934;2022-12-10T16:53:16;14.27;;;8.50;;
22963;SDS011;11648;49.306;6.934;2022-12-10T16:55:52;17.17;;;8.47;;
22963;SDS011;11648;49.306;6.934;2022-12-10T16:58:20;14.00;;;8.33;;
22963;SDS011;11648;49.306;6.934;2022-12-10T17:00:50;12.60;;;7.97;;
22963;SDS011;11648;49.306;6.934;2022-12-10T17:03:21;15.80;;;8.23;;
22963;SDS011;11648;49.306;6.934;2022-12-10T17:05:55;12.50;;;7.70;;